createdAt,value
2023-02-23T00:03:17.353Z,28.07
2023-02-23T00:13:20.836Z,31.07
2023-02-23T00:23:23.663Z,31.30
2023-02-23T00:33:27.880Z,30.80
2023-02-23T00:43:30.221Z,31.77
2023-02-23T00:53:32.550Z,32.43
2023-02-23T01:03:36.857Z,33.13
2023-02-23T01:13:40.158Z,38.13
2023-02-23T01:23:42.498Z,36.77
2023-02-23T01:33:44.891Z,38.10
2023-02-23T01:44:00.676Z,43.23
2023-02-23T01:54:16.327Z,44.67
2023-02-23T02:04:20.281Z,44.75
2023-02-23T02:14:30.829Z,46.03
2023-02-23T02:25:11.244Z,46.03
2023-02-23T02:35:51.590Z,47.40
2023-02-23T02:46:08.710Z,46.43
2023-02-23T02:56:11.805Z,45.17
2023-02-23T03:06:33.325Z,45.90
2023-02-23T03:17:23.615Z,48.63
2023-02-23T03:27:48.587Z,47.60
2023-02-23T03:38:25.710Z,47.70
2023-02-23T03:48:47.196Z,46.50
2023-02-23T03:59:14.786Z,47.17
2023-02-23T04:09:35.574Z,44.20
2023-02-23T04:19:38.000Z,49.40
2023-02-23T04:29:40.658Z,48.90
2023-02-23T04:39:48.555Z,42.77
2023-02-23T04:49:50.728Z,48.87
2023-02-23T04:59:52.849Z,44.43
2023-02-23T05:09:55.181Z,44.40
2023-02-23T05:19:57.346Z,46.07
2023-02-23T05:29:59.742Z,45.23
2023-02-23T05:40:01.936Z,48.27
2023-02-23T05:50:10.085Z,46.97
2023-02-23T06:00:13.545Z,46.90
2023-02-23T06:10:16.070Z,44.37
2023-02-23T06:20:18.370Z,47.47
2023-02-23T06:30:20.645Z,46.07
2023-02-23T06:40:23.017Z,45.13
2023-02-23T06:50:25.660Z,46.33
2023-02-23T07:00:27.767Z,46.80
2023-02-23T07:10:31.209Z,48.83
2023-02-23T07:20:33.953Z,48.07
2023-02-23T07:30:36.279Z,49.33
2023-02-23T07:40:38.825Z,50.07
2023-02-23T07:50:41.832Z,50.37
2023-02-23T08:00:43.999Z,48.87
2023-02-23T08:10:49.954Z,50.87
2023-02-23T08:21:00.660Z,50.93
2023-02-23T08:31:02.926Z,52.57
2023-02-23T08:41:05.943Z,47.77
2023-02-23T08:51:08.903Z,40.93
2023-02-23T09:01:20.044Z,43.07
2023-02-23T09:11:23.626Z,38.37
2023-02-23T09:21:26.356Z,35.20
2023-02-23T09:31:28.851Z,36.03
2023-02-23T09:41:43.561Z,36.07
2023-02-23T09:51:51.723Z,35.20
2023-02-23T10:02:15.564Z,31.03
2023-02-23T10:12:23.787Z,29.70
2023-02-23T10:22:26.649Z,29.37
2023-02-23T10:32:42.234Z,26.70
2023-02-23T10:42:44.848Z,26.60
2023-02-23T10:52:48.881Z,30.30
2023-02-23T11:02:51.233Z,27.23
2023-02-23T11:12:53.485Z,24.80
2023-02-23T11:23:03.618Z,24.00
2023-02-23T11:33:16.257Z,22.03
2023-02-23T11:43:18.566Z,23.40
2023-02-23T11:53:31.617Z,22.07
2023-02-23T12:03:34.525Z,20.87
2023-02-23T12:13:42.449Z,21.33
2023-02-23T12:23:48.864Z,22.30
2023-02-23T12:33:57.462Z,20.77
2023-02-23T12:44:15.212Z,20.97
2023-02-23T12:54:17.608Z,26.07
2023-02-23T13:04:41.765Z,23.37
2023-02-23T13:15:02.148Z,20.13
2023-02-23T13:25:18.567Z,18.47
2023-02-23T13:35:21.939Z,17.10
2023-02-23T13:45:31.483Z,15.03
2023-02-23T13:55:48.687Z,14.17
2023-02-23T14:05:56.896Z,16.00
2023-02-23T14:16:19.634Z,16.10
2023-02-23T14:26:27.838Z,16.73
2023-02-23T14:36:35.970Z,17.80
2023-02-23T14:46:38.435Z,18.50
2023-02-23T14:56:46.982Z,19.57
2023-02-23T15:06:52.877Z,18.83
2023-02-23T15:16:56.224Z,17.93
2023-02-23T15:26:58.467Z,17.43
2023-02-23T15:37:04.789Z,18.60
2023-02-23T15:47:19.325Z,17.77
2023-02-23T15:57:29.347Z,18.90
2023-02-23T16:07:43.276Z,16.80
2023-02-23T16:17:48.445Z,17.10
2023-02-23T16:28:08.942Z,18.27
2023-02-23T16:38:15.167Z,17.43
2023-02-23T16:48:18.597Z,16.67
2023-02-23T16:58:23.401Z,15.90
2023-02-23T17:08:26.359Z,16.83
2023-02-23T17:18:31.387Z,18.77
2023-02-23T17:28:33.811Z,14.23
2023-02-23T17:38:36.111Z,15.83
2023-02-23T17:48:40.520Z,17.00
2023-02-23T17:58:43.052Z,17.93
2023-02-23T18:08:46.297Z,18.80
2023-02-23T18:18:49.233Z,17.03
2023-02-23T18:28:51.881Z,18.40
2023-02-23T18:38:55.685Z,17.43
2023-02-23T18:48:58.118Z,18.00
2023-02-23T18:59:01.885Z,18.77
2023-02-23T19:09:07.809Z,18.50
2023-02-23T19:19:10.651Z,18.77
2023-02-23T19:29:13.015Z,16.53
2023-02-23T19:39:16.137Z,17.67
2023-02-23T19:49:18.903Z,18.53
2023-02-23T19:59:21.566Z,18.37
2023-02-23T20:09:23.946Z,17.33
2023-02-23T20:19:26.443Z,16.70
2023-02-23T20:29:29.495Z,16.27
2023-02-23T20:39:31.858Z,17.63
2023-02-23T20:49:34.173Z,16.77
2023-02-23T20:59:36.814Z,17.40
2023-02-23T21:09:40.840Z,16.63
2023-02-23T21:19:43.819Z,17.53
2023-02-23T21:29:46.033Z,9.60
2023-02-23T21:39:51.242Z,7.13
2023-02-23T21:49:54.317Z,8.07
2023-02-23T21:59:56.748Z,5.60
2023-02-23T22:09:59.081Z,4.47
2023-02-23T22:20:01.426Z,5.33
2023-02-23T22:30:05.058Z,4.30
2023-02-23T22:40:12.295Z,3.73
2023-02-23T22:50:18.332Z,3.63
2023-02-23T23:00:20.741Z,3.87
2023-02-23T23:10:23.622Z,4.53
2023-02-23T23:20:25.966Z,6.53
2023-02-23T23:30:29.390Z,5.10
2023-02-23T23:40:35.659Z,5.33
2023-02-23T23:50:39.662Z,5.97
